createdAt,value
2019-05-23T00:04:24.399Z,11
2019-05-23T00:09:26.806Z,9
2019-05-23T00:14:29.245Z,11
2019-05-23T00:19:31.697Z,11
2019-05-23T00:24:34.175Z,12
2019-05-23T00:29:36.599Z,11
2019-05-23T00:34:39.073Z,10
2019-05-23T00:39:41.529Z,12
2019-05-23T00:44:43.993Z,11
2019-05-23T00:49:46.466Z,11
2019-05-23T00:54:48.913Z,11
2019-05-23T00:59:51.398Z,10
2019-05-23T01:04:53.826Z,12
2019-05-23T01:09:56.304Z,12
2019-05-23T01:14:58.717Z,12
2019-05-23T01:20:01.188Z,12
2019-05-23T01:25:03.779Z,10
2019-05-23T01:30:06.198Z,10
2019-05-23T01:35:08.626Z,9
2019-05-23T01:40:11.139Z,12
2019-05-23T01:45:13.482Z,11
2019-05-23T01:50:15.945Z,11
2019-05-23T01:55:18.413Z,10
2019-05-23T02:00:20.938Z,9
2019-05-23T02:05:23.327Z,9
2019-05-23T02:10:25.775Z,9
2019-05-23T02:15:28.227Z,9
2019-05-23T02:20:30.678Z,9
2019-05-23T02:25:33.139Z,9
2019-05-23T02:30:36.274Z,9
2019-05-23T02:35:38.063Z,9
2019-05-23T02:40:40.552Z,9
2019-05-23T02:45:42.997Z,8
2019-05-23T02:50:45.431Z,8
2019-05-23T02:55:47.905Z,8
2019-05-23T03:00:54.559Z,9
2019-05-23T03:05:52.831Z,8
2019-05-23T03:10:55.269Z,9
2019-05-23T03:15:57.724Z,9
2019-05-23T03:21:00.213Z,9
2019-05-23T03:26:02.643Z,9
2019-05-23T03:31:26.276Z,7
2019-05-23T03:36:07.555Z,10
2019-05-23T03:41:10.072Z,10
2019-05-23T03:46:12.463Z,10
2019-05-23T03:51:14.899Z,9
2019-05-23T03:56:17.406Z,10
2019-05-23T04:01:19.845Z,12
2019-05-23T04:06:22.308Z,11
2019-05-23T04:11:24.818Z,10
2019-05-23T04:16:30.389Z,11
2019-05-23T04:21:29.651Z,11
2019-05-23T04:26:32.139Z,9
2019-05-23T04:31:34.593Z,10
2019-05-23T04:36:37.059Z,11
2019-05-23T04:41:39.521Z,10
2019-05-23T04:46:41.955Z,9
2019-05-23T04:51:44.423Z,9
2019-05-23T04:56:46.858Z,10
2019-05-23T05:01:49.322Z,10
2019-05-23T05:06:51.906Z,8
2019-05-23T05:11:54.335Z,9
2019-05-23T05:16:56.682Z,9
2019-05-23T05:21:59.156Z,9
2019-05-23T05:27:01.612Z,8
2019-05-23T05:32:04.291Z,8
2019-05-23T05:37:06.557Z,9
2019-05-23T05:42:09.129Z,8
2019-05-23T05:47:11.463Z,8
2019-05-23T05:52:13.921Z,9
2019-05-23T05:57:16.361Z,7
2019-05-23T06:02:18.823Z,7
2019-05-23T06:07:21.279Z,8
2019-05-23T06:12:23.769Z,7
2019-05-23T06:17:26.333Z,6
2019-05-23T06:22:28.674Z,7
2019-05-23T06:27:31.122Z,5
2019-05-23T06:32:33.692Z,5
2019-05-23T06:37:36.137Z,5
2019-05-23T06:42:38.511Z,5
2019-05-23T06:47:40.962Z,6
2019-05-23T06:52:43.415Z,6
2019-05-23T07:02:48.381Z,6
2019-05-23T07:07:50.772Z,6
2019-05-23T07:12:53.234Z,7
2019-05-23T07:17:55.723Z,6
2019-05-23T07:22:58.183Z,7
2019-05-23T07:28:00.675Z,6
2019-05-23T07:33:03.092Z,7
2019-05-23T07:38:05.550Z,6
2019-05-23T07:43:08.018Z,7
2019-05-23T07:48:10.492Z,8
2019-05-23T07:53:12.906Z,6
2019-05-23T07:58:15.414Z,7
2019-05-23T08:03:17.881Z,7
2019-05-23T08:08:22.309Z,6
2019-05-23T08:13:22.847Z,7
2019-05-23T08:18:25.335Z,6
2019-05-23T08:23:27.814Z,7
2019-05-23T08:28:30.133Z,7
2019-05-23T08:33:32.621Z,7
2019-05-23T08:38:35.041Z,7
2019-05-23T08:43:37.505Z,6
2019-05-23T08:48:39.974Z,7
2019-05-23T08:53:42.448Z,6
2019-05-23T08:58:44.947Z,6
2019-05-23T09:03:47.411Z,6
2019-05-23T09:08:49.929Z,6
2019-05-23T09:13:52.441Z,5
2019-05-23T09:18:54.804Z,6
2019-05-23T09:28:59.693Z,6
2019-05-23T09:34:02.140Z,5
2019-05-23T09:39:04.575Z,6
2019-05-23T09:44:07.138Z,5
2019-05-23T09:49:11.178Z,5
2019-05-23T09:54:11.961Z,5
2019-05-23T09:59:14.422Z,5
2019-05-23T10:04:16.917Z,5
2019-05-23T10:09:19.651Z,5
2019-05-23T10:14:21.804Z,4
2019-05-23T10:19:24.408Z,5
2019-05-23T10:24:26.729Z,5
2019-05-23T10:29:29.228Z,4
2019-05-23T10:34:31.684Z,5
2019-05-23T10:39:34.101Z,5
2019-05-23T10:44:36.665Z,4
2019-05-23T10:49:39.031Z,4
2019-05-23T10:54:41.712Z,4
2019-05-23T10:59:43.940Z,3
2019-05-23T11:04:46.499Z,3
2019-05-23T11:09:48.882Z,4
2019-05-23T11:14:51.326Z,4
2019-05-23T11:19:53.800Z,3
2019-05-23T11:24:56.365Z,5
2019-05-23T11:29:58.902Z,4
2019-05-23T11:35:01.200Z,4
2019-05-23T11:40:03.646Z,4
2019-05-23T11:45:06.171Z,4
2019-05-23T11:50:08.590Z,3
2019-05-23T11:55:11.036Z,3
2019-05-23T12:00:13.622Z,3
2019-05-23T12:05:15.962Z,3
2019-05-23T12:10:18.480Z,4
2019-05-23T12:15:20.880Z,4
2019-05-23T12:25:25.786Z,4
2019-05-23T12:30:28.261Z,5
2019-05-23T12:35:30.713Z,5
2019-05-23T12:40:33.242Z,6
2019-05-23T12:45:35.640Z,4
2019-05-23T12:50:38.108Z,5
2019-05-23T12:55:40.628Z,5
2019-05-23T13:00:43.050Z,4
2019-05-23T13:05:45.505Z,5
2019-05-23T13:10:47.989Z,4
2019-05-23T13:15:50.500Z,3
2019-05-23T13:20:52.863Z,4
2019-05-23T13:25:55.301Z,4
2019-05-23T13:30:57.771Z,4
2019-05-23T13:36:00.292Z,5
2019-05-23T13:41:02.694Z,4
2019-05-23T13:46:05.210Z,5
2019-05-23T13:51:07.612Z,5
2019-05-23T13:56:10.067Z,5
2019-05-23T14:01:12.516Z,6
2019-05-23T14:06:15.004Z,6
2019-05-23T14:11:17.521Z,5
2019-05-23T14:16:19.915Z,6
2019-05-23T14:21:22.403Z,7
2019-05-23T14:26:24.836Z,6
2019-05-23T14:31:27.279Z,6
2019-05-23T14:36:32.113Z,7
2019-05-23T14:41:44.465Z,8
2019-05-23T14:46:34.783Z,8
2019-05-23T14:51:37.156Z,9
2019-05-23T14:56:39.626Z,8
2019-05-23T15:01:42.029Z,9
2019-05-23T15:06:44.486Z,9
2019-05-23T15:11:46.985Z,9
2019-05-23T15:16:49.393Z,10
2019-05-23T15:21:52.023Z,11
2019-05-23T15:32:02.040Z,10
2019-05-23T15:36:59.282Z,9
2019-05-23T15:42:01.780Z,9
2019-05-23T15:47:04.175Z,8
2019-05-23T15:52:06.655Z,7
2019-05-23T15:57:09.116Z,6
2019-05-23T16:02:11.535Z,5
2019-05-23T16:07:14.000Z,6
2019-05-23T16:12:16.513Z,6
2019-05-23T16:17:18.911Z,6
2019-05-23T16:22:21.407Z,6
2019-05-23T16:27:23.855Z,6
2019-05-23T16:32:26.458Z,5
2019-05-23T16:37:28.745Z,7
2019-05-23T16:42:31.219Z,7
2019-05-23T16:47:33.682Z,7
2019-05-23T16:52:36.252Z,7
2019-05-23T16:57:38.594Z,8
2019-05-23T17:02:41.105Z,8
2019-05-23T17:07:43.526Z,8
2019-05-23T17:12:45.975Z,8
2019-05-23T17:18:01.110Z,7
2019-05-23T17:22:50.892Z,7
2019-05-23T17:27:53.415Z,8
2019-05-23T17:32:55.802Z,7
2019-05-23T17:37:58.264Z,8
2019-05-23T17:43:00.712Z,8
2019-05-23T17:48:03.293Z,8
2019-05-23T17:53:05.622Z,7
2019-05-23T17:58:08.105Z,7
2019-05-23T18:03:10.576Z,6
2019-05-23T18:08:13.020Z,7
2019-05-23T18:13:15.511Z,7
2019-05-23T18:18:17.917Z,8
2019-05-23T18:23:20.474Z,7
2019-05-23T18:28:22.942Z,7
2019-05-23T18:33:25.341Z,5
2019-05-23T18:38:27.755Z,6
2019-05-23T18:43:30.197Z,4
2019-05-23T18:48:32.703Z,5
2019-05-23T18:53:35.171Z,5
2019-05-23T18:58:37.579Z,5
2019-05-23T19:03:40.045Z,6
2019-05-23T19:08:42.497Z,8
2019-05-23T19:13:44.958Z,8
2019-05-23T19:18:47.546Z,10
2019-05-23T19:23:49.928Z,11
2019-05-23T19:28:52.386Z,8
2019-05-23T19:33:54.785Z,7
2019-05-23T19:38:57.226Z,10
2019-05-23T19:43:59.728Z,11
2019-05-23T19:49:02.162Z,16
2019-05-23T19:54:04.613Z,15
2019-05-23T19:59:07.183Z,11
2019-05-23T20:04:09.530Z,12
2019-05-23T20:09:11.989Z,13
2019-05-23T20:14:14.443Z,13
2019-05-23T20:19:16.904Z,14
2019-05-23T20:24:19.356Z,11
2019-05-23T20:29:21.815Z,11
2019-05-23T20:34:24.282Z,10
2019-05-23T20:39:26.741Z,10
2019-05-23T20:44:29.201Z,11
2019-05-23T20:49:31.644Z,13
2019-05-23T20:54:34.150Z,13
2019-05-23T20:59:36.588Z,12
2019-05-23T21:04:39.033Z,12
2019-05-23T21:09:41.477Z,11
2019-05-23T21:14:43.925Z,9
2019-05-23T21:19:46.396Z,11
2019-05-23T21:24:48.888Z,11
2019-05-23T21:29:51.291Z,13
2019-05-23T21:34:53.778Z,11
2019-05-23T21:39:56.255Z,10
2019-05-23T21:44:58.703Z,11
2019-05-23T21:50:01.133Z,10
2019-05-23T21:55:03.909Z,10
2019-05-23T22:00:06.160Z,10
2019-05-23T22:05:08.510Z,10
2019-05-23T22:10:11.078Z,11
2019-05-23T22:15:13.419Z,12
2019-05-23T22:20:15.886Z,12
2019-05-23T22:25:18.329Z,11
2019-05-23T22:30:20.803Z,11
2019-05-23T22:35:23.251Z,13
2019-05-23T22:40:25.699Z,14
2019-05-23T22:45:28.166Z,13
2019-05-23T22:50:30.641Z,13
2019-05-23T22:55:33.161Z,12
2019-05-23T23:00:35.567Z,14
2019-05-23T23:05:38.017Z,15
2019-05-23T23:10:40.473Z,14
2019-05-23T23:15:42.894Z,16
2019-05-23T23:20:46.122Z,15
2019-05-23T23:25:47.838Z,14
2019-05-23T23:30:50.308Z,14
2019-05-23T23:35:52.750Z,15
2019-05-23T23:40:55.191Z,14
2019-05-23T23:45:57.651Z,18
2019-05-23T23:51:00.103Z,15
2019-05-23T23:56:02.571Z,14
